Time;durP1;ratioP1;P1;durP2;ratioP2;P2;SDS_P1;SDS_P2;PMS_P1;PMS_P2;Temp;Humidity;BMP_temperature;BMP_pressure;BME280_temperature;BME280_humidity;BME280_pressure;Samples;Min_cycle;Max_cycle;Signal;HPM_P1;HPM_P2
2024/03/24 00:00:09;;;;;;;4.97;3.42;;;;;;;;;;4995158;28;20145;-74
2024/03/24 00:02:35;;;;;;;5.35;3.70;;;;;;;;;;5012509;28;20061;-68
2024/03/24 00:05:03;;;;;;;5.45;3.60;;;;;;;;;;4999144;28;20034;-70
2024/03/24 00:07:28;;;;;;;5.35;3.58;;;;;;;;;;4995370;28;20034;-70
2024/03/24 00:09:54;;;;;;;5.78;3.65;;;;;;;;;;5011808;28;20046;-69
2024/03/24 00:12:20;;;;;;;5.43;3.60;;;;;;;;;;5002171;28;20074;-76
2024/03/24 00:14:45;;;;;;;4.95;3.72;;;;;;;;;;4991078;28;20054;-75
2024/03/24 00:17:10;;;;;;;5.13;3.60;;;;;;;;;;4995517;28;20588;-72
2024/03/24 00:19:36;;;;;;;5.20;3.55;;;;;;;;;;5003061;28;20034;-71
2024/03/24 00:22:01;;;;;;;4.50;3.40;;;;;;;;;;4999069;28;20041;-70
2024/03/24 00:24:27;;;;;;;6.07;4.18;;;;;;;;;;4995757;28;20100;-72
2024/03/24 00:26:52;;;;;;;5.13;3.60;;;;;;;;;;5007414;28;20132;-77
2024/03/24 00:29:17;;;;;;;5.80;3.70;;;;;;;;;;4999045;28;20042;-69
2024/03/24 00:31:43;;;;;;;5.55;3.58;;;;;;;;;;4995776;28;20038;-73
2024/03/24 00:34:17;;;;;;;5.47;3.58;;;;;;;;;;5000162;28;20042;-70
2024/03/24 00:36:42;;;;;;;5.40;3.67;;;;;;;;;;4993219;28;20073;-72
2024/03/24 00:39:08;;;;;;;4.65;3.55;;;;;;;;;;5006220;28;20084;-69
2024/03/24 00:41:33;;;;;;;6.28;3.70;;;;;;;;;;4996442;28;20048;-71
2024/03/24 00:43:59;;;;;;;4.18;3.30;;;;;;;;;;4998497;28;20468;-71
2024/03/24 00:46:24;;;;;;;5.20;3.63;;;;;;;;;;4991101;28;20129;-71
2024/03/24 00:48:49;;;;;;;6.88;3.65;;;;;;;;;;5008226;28;20042;-71
2024/03/24 00:51:14;;;;;;;6.03;3.85;;;;;;;;;;5009313;28;20030;-68
2024/03/24 00:53:40;;;;;;;5.38;3.70;;;;;;;;;;4993857;28;20041;-75
2024/03/24 00:56:05;;;;;;;5.78;3.40;;;;;;;;;;4987646;28;20038;-70
2024/03/24 00:58:31;;;;;;;4.82;3.50;;;;;;;;;;4994674;28;20046;-71
2024/03/24 01:03:59;;;;;;;5.88;3.90;;;;;;;;;;4984120;28;20166;-74
2024/03/24 01:06:24;;;;;;;4.28;3.40;;;;;;;;;;5004411;28;20097;-75
2024/03/24 01:08:50;;;;;;;5.60;3.63;;;;;;;;;;4999156;28;20190;-70
2024/03/24 01:11:15;;;;;;;4.18;3.20;;;;;;;;;;5005148;28;20041;-69
2024/03/24 01:13:40;;;;;;;5.32;3.65;;;;;;;;;;4998420;28;20029;-72
2024/03/24 01:16:07;;;;;;;4.97;3.42;;;;;;;;;;5004364;28;20046;-73
2024/03/24 01:18:32;;;;;;;4.05;3.10;;;;;;;;;;5004933;28;20041;-74
2024/03/24 01:20:58;;;;;;;5.00;3.55;;;;;;;;;;5004693;28;20042;-75
2024/03/24 01:23:24;;;;;;;4.85;3.53;;;;;;;;;;4993469;28;20125;-63
2024/03/24 01:25:49;;;;;;;5.45;3.75;;;;;;;;;;4986486;28;20202;-64
2024/03/24 01:28:14;;;;;;;4.45;3.15;;;;;;;;;;4988021;28;20541;-66
2024/03/24 01:30:40;;;;;;;4.72;3.25;;;;;;;;;;4989318;28;20522;-64
2024/03/24 01:33:05;;;;;;;4.80;3.15;;;;;;;;;;5002586;28;20045;-64
2024/03/24 01:35:30;;;;;;;4.18;3.05;;;;;;;;;;4995938;28;20052;-63
2024/03/24 01:37:57;;;;;;;4.70;2.92;;;;;;;;;;4996365;28;20057;-66
2024/03/24 01:40:22;;;;;;;4.05;3.28;;;;;;;;;;5022501;28;20442;-66
2024/03/24 01:42:48;;;;;;;5.45;3.67;;;;;;;;;;4989260;28;20044;-62
2024/03/24 01:45:14;;;;;;;4.20;3.35;;;;;;;;;;4996539;28;20046;-62
2024/03/24 01:47:39;;;;;;;4.57;3.05;;;;;;;;;;4999308;28;20097;-62
2024/03/24 01:50:06;;;;;;;4.20;3.30;;;;;;;;;;4989960;28;20046;-65
2024/03/24 01:52:31;;;;;;;5.75;3.50;;;;;;;;;;5008923;28;20034;-63
2024/03/24 01:54:56;;;;;;;4.63;3.47;;;;;;;;;;4998156;28;20183;-64
2024/03/24 01:57:22;;;;;;;4.97;3.50;;;;;;;;;;5007972;28;20038;-64
2024/03/24 01:59:49;;;;;;;4.10;3.08;;;;;;;;;;5009973;28;20045;-64
2024/03/24 02:02:14;;;;;;;4.38;3.10;;;;;;;;;;5007662;28;20034;-64
2024/03/24 02:04:48;;;;;;;3.97;3.05;;;;;;;;;;5002935;28;20513;-64
2024/03/24 02:07:14;;;;;;;3.83;3.15;;;;;;;;;;5007733;28;20041;-64
2024/03/24 02:09:39;;;;;;;5.82;3.65;;;;;;;;;;5004515;28;20026;-65
2024/03/24 02:12:05;;;;;;;3.75;2.83;;;;;;;;;;5000579;28;20054;-64
2024/03/24 02:14:31;;;;;;;5.50;2.92;;;;;;;;;;4993738;28;20038;-64
2024/03/24 02:16:56;;;;;;;4.00;3.10;;;;;;;;;;5004865;28;20038;-64
2024/03/24 02:19:21;;;;;;;4.10;2.95;;;;;;;;;;5006414;28;20504;-65
2024/03/24 02:21:47;;;;;;;4.57;3.30;;;;;;;;;;4986966;28;20038;-64
2024/03/24 02:24:12;;;;;;;4.78;3.53;;;;;;;;;;4987418;28;20082;-67
2024/03/24 02:26:38;;;;;;;4.90;3.47;;;;;;;;;;4988000;28;20053;-65
2024/03/24 02:29:03;;;;;;;3.92;3.15;;;;;;;;;;4987507;28;20459;-64
2024/03/24 02:31:28;;;;;;;4.25;3.00;;;;;;;;;;4995992;28;21587;-64
2024/03/24 02:33:53;;;;;;;3.83;2.78;;;;;;;;;;5006220;28;20045;-65
2024/03/24 02:36:19;;;;;;;4.90;3.20;;;;;;;;;;4988543;28;20038;-65
2024/03/24 02:38:44;;;;;;;4.90;3.05;;;;;;;;;;4986223;28;20054;-66
2024/03/24 02:41:09;;;;;;;4.63;3.17;;;;;;;;;;4992974;28;20038;-66
2024/03/24 02:43:36;;;;;;;5.22;3.10;;;;;;;;;;4998028;28;20069;-64
2024/03/24 02:46:01;;;;;;;4.55;3.15;;;;;;;;;;4996445;28;20045;-64
2024/03/24 02:48:27;;;;;;;3.90;2.80;;;;;;;;;;4988592;28;20933;-64
2024/03/24 02:50:53;;;;;;;4.45;2.80;;;;;;;;;;4995281;28;20897;-64
2024/03/24 02:53:18;;;;;;;4.03;3.00;;;;;;;;;;4992532;28;20413;-64
2024/03/24 02:55:46;;;;;;;3.90;2.90;;;;;;;;;;5003501;28;20472;-65
2024/03/24 02:58:12;;;;;;;4.22;3.00;;;;;;;;;;5006424;28;20042;-64
2024/03/24 03:00:37;;;;;;;4.30;3.30;;;;;;;;;;4998892;28;20181;-64
2024/03/24 03:03:03;;;;;;;4.55;3.35;;;;;;;;;;4987112;28;20031;-64
2024/03/24 03:05:28;;;;;;;4.18;3.08;;;;;;;;;;4990670;28;20555;-66
2024/03/24 03:07:53;;;;;;;4.20;2.92;;;;;;;;;;5006216;28;20048;-64
2024/03/24 03:10:19;;;;;;;4.28;3.20;;;;;;;;;;4995779;28;20132;-64
2024/03/24 03:12:44;;;;;;;4.20;3.03;;;;;;;;;;4998402;28;20046;-64
2024/03/24 03:15:14;;;;;;;3.58;2.78;;;;;;;;;;4992437;28;20037;-65
2024/03/24 03:17:40;;;;;;;3.85;2.85;;;;;;;;;;4992740;28;20042;-64
2024/03/24 03:20:08;;;;;;;4.47;2.92;;;;;;;;;;4989208;28;20100;-63
2024/03/24 03:22:33;;;;;;;3.63;2.72;;;;;;;;;;5004058;28;20033;-65
2024/03/24 03:24:58;;;;;;;3.50;2.80;;;;;;;;;;4998848;28;20525;-66
2024/03/24 03:27:24;;;;;;;3.75;2.92;;;;;;;;;;4990570;28;20039;-65
2024/03/24 03:29:49;;;;;;;4.03;3.05;;;;;;;;;;4986249;28;20089;-64
2024/03/24 03:32:14;;;;;;;3.58;2.65;;;;;;;;;;4986060;28;20034;-64
2024/03/24 03:34:40;;;;;;;3.67;2.72;;;;;;;;;;5003196;28;20045;-65
2024/03/24 03:37:05;;;;;;;4.28;2.70;;;;;;;;;;4988297;28;20034;-63
2024/03/24 03:39:30;;;;;;;4.03;2.85;;;;;;;;;;4993886;28;20125;-64
2024/03/24 03:41:56;;;;;;;3.95;2.85;;;;;;;;;;4997978;28;20121;-64
2024/03/24 03:44:21;;;;;;;4.43;3.03;;;;;;;;;;5000425;28;20045;-64
2024/03/24 03:46:46;;;;;;;4.65;2.65;;;;;;;;;;4993875;28;20049;-67
2024/03/24 03:49:16;;;;;;;3.53;2.67;;;;;;;;;;5003895;28;20037;-63
2024/03/24 03:51:44;;;;;;;4.57;2.95;;;;;;;;;;5006019;28;20034;-64
2024/03/24 03:54:10;;;;;;;4.43;2.92;;;;;;;;;;5008226;28;20038;-65
2024/03/24 03:56:35;;;;;;;3.45;2.72;;;;;;;;;;4995758;28;20364;-64
2024/03/24 03:59:01;;;;;;;4.22;3.08;;;;;;;;;;5009257;28;20489;-63
2024/03/24 04:01:26;;;;;;;4.15;2.88;;;;;;;;;;4982161;28;20045;-64
2024/03/24 04:03:51;;;;;;;3.95;2.90;;;;;;;;;;4989357;28;20038;-63
2024/03/24 04:06:18;;;;;;;3.75;2.80;;;;;;;;;;4993196;28;20122;-63
2024/03/24 04:08:43;;;;;;;4.68;2.85;;;;;;;;;;5003911;28;20097;-64
2024/03/24 04:11:09;;;;;;;3.58;2.90;;;;;;;;;;4998982;28;20089;-64
2024/03/24 04:13:34;;;;;;;4.07;3.00;;;;;;;;;;4990128;28;20104;-63
2024/03/24 04:15:59;;;;;;;3.97;3.00;;;;;;;;;;5002113;28;20096;-64
2024/03/24 04:18:25;;;;;;;5.38;3.50;;;;;;;;;;5007493;28;20072;-63
2024/03/24 04:20:51;;;;;;;4.80;3.53;;;;;;;;;;4994671;28;20126;-65
2024/03/24 04:23:17;;;;;;;3.95;3.13;;;;;;;;;;4990574;28;20395;-63
2024/03/24 04:25:42;;;;;;;4.80;3.47;;;;;;;;;;5005658;28;20038;-64
2024/03/24 04:28:08;;;;;;;4.85;3.40;;;;;;;;;;5005634;28;20038;-63
2024/03/24 04:30:34;;;;;;;4.10;3.03;;;;;;;;;;5001132;28;20500;-66
2024/03/24 04:32:59;;;;;;;4.65;3.50;;;;;;;;;;5008062;28;20041;-64
2024/03/24 04:35:24;;;;;;;5.13;3.70;;;;;;;;;;5002195;28;20104;-66
2024/03/24 04:37:50;;;;;;;4.40;3.30;;;;;;;;;;4999805;28;20033;-65
2024/03/24 04:40:15;;;;;;;4.43;3.42;;;;;;;;;;5006502;28;20030;-65
2024/03/24 04:42:41;;;;;;;5.00;3.75;;;;;;;;;;5007789;28;20087;-65
2024/03/24 04:45:07;;;;;;;5.82;3.80;;;;;;;;;;5006749;28;20476;-64
2024/03/24 04:47:33;;;;;;;5.18;3.70;;;;;;;;;;5003600;28;20802;-65
2024/03/24 04:49:58;;;;;;;4.50;3.47;;;;;;;;;;5005786;28;20022;-65
2024/03/24 04:52:24;;;;;;;4.85;3.47;;;;;;;;;;5005948;28;20477;-65
2024/03/24 04:54:50;;;;;;;4.35;3.15;;;;;;;;;;5005855;28;20061;-64
2024/03/24 04:57:16;;;;;;;4.25;2.85;;;;;;;;;;5003514;28;20046;-66
2024/03/24 04:59:41;;;;;;;4.32;3.10;;;;;;;;;;4999240;28;20038;-62
2024/03/24 05:02:08;;;;;;;4.15;3.25;;;;;;;;;;4993196;28;20022;-66
2024/03/24 05:04:35;;;;;;;4.75;2.92;;;;;;;;;;5001132;28;20141;-62
2024/03/24 05:07:00;;;;;;;4.80;3.58;;;;;;;;;;5000596;28;20037;-63
2024/03/24 05:09:25;;;;;;;3.72;2.88;;;;;;;;;;4999023;28;20018;-64
2024/03/24 05:11:51;;;;;;;4.25;3.00;;;;;;;;;;5003178;28;20529;-63
2024/03/24 05:14:17;;;;;;;4.72;3.13;;;;;;;;;;5003374;28;20057;-65
2024/03/24 05:16:42;;;;;;;4.63;2.90;;;;;;;;;;5002048;28;20030;-65
2024/03/24 05:19:07;;;;;;;4.60;3.45;;;;;;;;;;5000089;28;20521;-68
2024/03/24 05:21:33;;;;;;;4.10;3.08;;;;;;;;;;5001596;28;20026;-67
2024/03/24 05:23:58;;;;;;;4.38;3.13;;;;;;;;;;5006435;28;20435;-64
2024/03/24 05:26:24;;;;;;;3.72;2.60;;;;;;;;;;5000728;28;20026;-64
2024/03/24 05:28:50;;;;;;;3.13;2.65;;;;;;;;;;4988806;28;20022;-64
2024/03/24 05:31:15;;;;;;;4.68;3.50;;;;;;;;;;5025711;28;20089;-63
2024/03/24 05:33:41;;;;;;;4.57;3.20;;;;;;;;;;5002303;28;20022;-64
2024/03/24 05:36:06;;;;;;;4.25;3.17;;;;;;;;;;5000815;28;20050;-61
2024/03/24 05:38:32;;;;;;;4.22;2.95;;;;;;;;;;4999008;28;20046;-64
2024/03/24 05:41:00;;;;;;;4.53;3.10;;;;;;;;;;4997412;28;20084;-64
2024/03/24 05:43:26;;;;;;;4.03;3.00;;;;;;;;;;4998909;28;20054;-65
2024/03/24 05:45:54;;;;;;;4.88;3.15;;;;;;;;;;5001099;28;20052;-64
2024/03/24 05:48:20;;;;;;;4.68;3.10;;;;;;;;;;4995797;28;20123;-65
2024/03/24 05:50:46;;;;;;;5.70;3.25;;;;;;;;;;5002428;28;20034;-64
2024/03/24 05:53:11;;;;;;;4.00;2.90;;;;;;;;;;5002898;28;20044;-65
2024/03/24 05:55:36;;;;;;;4.50;3.40;;;;;;;;;;5002112;28;20472;-68
2024/03/24 05:58:04;;;;;;;3.63;2.72;;;;;;;;;;5000814;28;20433;-65
2024/03/24 06:00:29;;;;;;;4.15;2.90;;;;;;;;;;5000346;28;20072;-65
2024/03/24 06:02:54;;;;;;;4.28;2.85;;;;;;;;;;5002465;28;20053;-63
2024/03/24 06:05:20;;;;;;;5.35;3.13;;;;;;;;;;5001072;28;20080;-61
2024/03/24 06:07:45;;;;;;;3.25;2.55;;;;;;;;;;5000554;28;20052;-65
2024/03/24 06:10:10;;;;;;;3.28;2.53;;;;;;;;;;5001084;28;20034;-64
2024/03/24 06:12:36;;;;;;;3.83;3.05;;;;;;;;;;5000563;28;20060;-66
2024/03/24 06:15:01;;;;;;;4.30;2.80;;;;;;;;;;5002389;28;20599;-62
2024/03/24 06:17:26;;;;;;;3.90;2.92;;;;;;;;;;5000439;28;20029;-63
2024/03/24 06:19:52;;;;;;;3.97;2.97;;;;;;;;;;5001254;28;20718;-61
2024/03/24 06:22:17;;;;;;;4.43;2.92;;;;;;;;;;4998636;28;20049;-61
2024/03/24 06:24:43;;;;;;;3.50;2.63;;;;;;;;;;5002089;28;20042;-63
2024/03/24 06:27:09;;;;;;;4.05;2.58;;;;;;;;;;5002046;28;20045;-62
2024/03/24 06:29:34;;;;;;;3.70;2.50;;;;;;;;;;4998889;28;20057;-62
2024/03/24 06:32:00;;;;;;;3.80;2.88;;;;;;;;;;5000764;28;20030;-65
2024/03/24 06:34:25;;;;;;;3.80;2.92;;;;;;;;;;5001676;28;20667;-63
2024/03/24 06:36:50;;;;;;;4.47;2.72;;;;;;;;;;5000730;28;20794;-62
2024/03/24 06:39:16;;;;;;;4.28;2.80;;;;;;;;;;4998386;28;20516;-62
2024/03/24 06:41:43;;;;;;;4.47;3.15;;;;;;;;;;5002250;28;20038;-68
2024/03/24 06:44:16;;;;;;;4.22;2.72;;;;;;;;;;4999525;28;20049;-63
2024/03/24 06:46:44;;;;;;;4.07;2.80;;;;;;;;;;5002727;28;20324;-63
2024/03/24 06:49:10;;;;;;;3.58;2.80;;;;;;;;;;4999526;28;20928;-62
2024/03/24 06:51:35;;;;;;;4.97;3.10;;;;;;;;;;5001552;28;20065;-65
2024/03/24 06:54:01;;;;;;;4.47;2.85;;;;;;;;;;5002244;28;20056;-64
2024/03/24 06:56:26;;;;;;;3.42;2.58;;;;;;;;;;5003361;28;20041;-63
2024/03/24 06:58:51;;;;;;;4.97;2.60;;;;;;;;;;4997215;28;20042;-64
2024/03/24 07:01:18;;;;;;;3.63;2.75;;;;;;;;;;4999399;28;20049;-63
2024/03/24 07:03:43;;;;;;;4.00;2.70;;;;;;;;;;5001984;28;20049;-66
2024/03/24 07:06:08;;;;;;;5.18;2.80;;;;;;;;;;5003179;28;20490;-63
2024/03/24 07:08:34;;;;;;;5.15;2.30;;;;;;;;;;4997891;28;20128;-63
2024/03/24 07:10:59;;;;;;;4.18;2.50;;;;;;;;;;5000986;28;20040;-62
2024/03/24 07:13:24;;;;;;;4.30;2.92;;;;;;;;;;5002358;28;20052;-62
2024/03/24 07:15:50;;;;;;;4.38;2.80;;;;;;;;;;4999910;28;20128;-64
2024/03/24 07:18:15;;;;;;;4.30;2.80;;;;;;;;;;4992542;28;20034;-64
2024/03/24 07:20:40;;;;;;;4.07;3.08;;;;;;;;;;4996777;28;20038;-63
2024/03/24 07:23:06;;;;;;;5.03;2.50;;;;;;;;;;5001849;28;20041;-63
2024/03/24 07:25:31;;;;;;;5.18;2.90;;;;;;;;;;5003851;28;20042;-63
2024/03/24 07:27:56;;;;;;;5.05;2.70;;;;;;;;;;5000881;28;20041;-63
2024/03/24 07:30:22;;;;;;;4.25;3.10;;;;;;;;;;5001119;28;20034;-64
2024/03/24 07:32:47;;;;;;;4.35;2.80;;;;;;;;;;5004970;28;20031;-63
2024/03/24 07:35:12;;;;;;;4.30;2.60;;;;;;;;;;5003451;28;20037;-63
2024/03/24 07:37:38;;;;;;;3.78;2.63;;;;;;;;;;5004077;28;20458;-63
2024/03/24 07:40:03;;;;;;;3.80;2.75;;;;;;;;;;5003531;28;20064;-63
2024/03/24 07:42:28;;;;;;;4.20;2.83;;;;;;;;;;5003860;28;20045;-63
2024/03/24 07:44:54;;;;;;;4.65;2.70;;;;;;;;;;5004309;28;20429;-63
2024/03/24 07:47:24;;;;;;;3.50;2.38;;;;;;;;;;5001174;28;20160;-63
2024/03/24 07:49:50;;;;;;;4.38;2.53;;;;;;;;;;5009119;28;20087;-65
2024/03/24 07:52:15;;;;;;;4.07;2.97;;;;;;;;;;5002318;28;20030;-63
2024/03/24 07:54:40;;;;;;;4.18;2.80;;;;;;;;;;5001869;28;20026;-63
2024/03/24 07:57:06;;;;;;;3.72;2.70;;;;;;;;;;5003503;28;20038;-69
2024/03/24 07:59:31;;;;;;;4.05;2.85;;;;;;;;;;5002806;28;20036;-65
2024/03/24 08:01:56;;;;;;;3.60;2.60;;;;;;;;;;5003118;28;20038;-65
2024/03/24 08:04:22;;;;;;;4.10;2.40;;;;;;;;;;5004733;28;20637;-65
2024/03/24 08:06:47;;;;;;;3.42;2.55;;;;;;;;;;5003646;28;20034;-65
2024/03/24 08:09:12;;;;;;;3.83;2.50;;;;;;;;;;5004092;28;20099;-65
2024/03/24 08:11:38;;;;;;;4.18;2.50;;;;;;;;;;5005318;28;20041;-62
2024/03/24 08:14:03;;;;;;;3.72;2.60;;;;;;;;;;5004518;28;20042;-66
2024/03/24 08:16:28;;;;;;;4.95;2.70;;;;;;;;;;5002618;28;20053;-64
2024/03/24 08:18:54;;;;;;;3.97;2.58;;;;;;;;;;5009313;28;20058;-63
2024/03/24 08:21:19;;;;;;;3.95;2.60;;;;;;;;;;5001293;28;20041;-64
2024/03/24 08:23:44;;;;;;;3.35;2.85;;;;;;;;;;5003762;28;20443;-63
2024/03/24 08:26:10;;;;;;;3.45;2.30;;;;;;;;;;5003813;28;20066;-62
2024/03/24 08:28:35;;;;;;;3.47;2.55;;;;;;;;;;5004406;28;20042;-64
2024/03/24 08:31:00;;;;;;;3.85;2.40;;;;;;;;;;5002479;28;20038;-63
2024/03/24 08:33:26;;;;;;;4.60;2.50;;;;;;;;;;5003611;28;20065;-63
2024/03/24 08:35:51;;;;;;;3.97;2.70;;;;;;;;;;5001070;28;20151;-63
2024/03/24 08:38:16;;;;;;;4.72;2.80;;;;;;;;;;5003138;28;20038;-65
2024/03/24 08:40:42;;;;;;;4.03;2.50;;;;;;;;;;5001421;28;20034;-64
2024/03/24 08:43:07;;;;;;;3.25;2.55;;;;;;;;;;5002386;28;20613;-64
2024/03/24 08:45:34;;;;;;;3.65;2.40;;;;;;;;;;5002520;28;20057;-64
2024/03/24 08:47:59;;;;;;;3.13;2.33;;;;;;;;;;5004546;28;20048;-64
2024/03/24 08:50:25;;;;;;;5.72;3.03;;;;;;;;;;5001934;28;20041;-66
2024/03/24 08:52:50;;;;;;;4.63;2.55;;;;;;;;;;5002289;28;20118;-64
2024/03/24 08:55:15;;;;;;;3.63;2.22;;;;;;;;;;5003018;28;20501;-66
2024/03/24 08:57:41;;;;;;;4.07;2.50;;;;;;;;;;5003960;28;20502;-65
2024/03/24 09:00:09;;;;;;;3.05;2.30;;;;;;;;;;4998048;28;20061;-65
2024/03/24 09:02:34;;;;;;;3.17;2.33;;;;;;;;;;5002827;28;20057;-64
2024/03/24 09:04:59;;;;;;;3.33;2.20;;;;;;;;;;5004140;28;20072;-64
2024/03/24 09:07:25;;;;;;;3.70;2.35;;;;;;;;;;5003568;28;20469;-66
2024/03/24 09:09:50;;;;;;;3.45;2.38;;;;;;;;;;5002825;28;20046;-63
2024/03/24 09:12:16;;;;;;;3.50;2.30;;;;;;;;;;5001094;28;20070;-67
2024/03/24 09:14:42;;;;;;;2.97;2.33;;;;;;;;;;5003662;28;21071;-62
2024/03/24 09:17:08;;;;;;;4.43;2.50;;;;;;;;;;5000468;28;20031;-65
2024/03/24 09:19:33;;;;;;;3.50;2.40;;;;;;;;;;5000151;28;20072;-65
2024/03/24 09:21:59;;;;;;;4.30;2.70;;;;;;;;;;4999447;28;20068;-65
2024/03/24 09:24:24;;;;;;;5.13;2.70;;;;;;;;;;5003562;28;20054;-64
2024/03/24 09:26:51;;;;;;;7.47;2.47;;;;;;;;;;5006478;28;20402;-64
2024/03/24 09:29:16;;;;;;;5.07;2.38;;;;;;;;;;5004177;28;20046;-63
2024/03/24 09:31:43;;;;;;;7.95;2.60;;;;;;;;;;5002890;28;20426;-65
2024/03/24 09:34:08;;;;;;;5.50;2.38;;;;;;;;;;5001676;28;20611;-64
2024/03/24 09:36:33;;;;;;;3.10;2.38;;;;;;;;;;5001956;28;20049;-66
2024/03/24 09:38:59;;;;;;;5.05;2.55;;;;;;;;;;5005185;28;20030;-62
2024/03/24 09:41:26;;;;;;;3.03;2.22;;;;;;;;;;5003708;28;20512;-64
2024/03/24 09:43:51;;;;;;;3.80;2.30;;;;;;;;;;5002020;28;20038;-63
2024/03/24 09:46:16;;;;;;;4.50;2.33;;;;;;;;;;5004334;28;20121;-63
2024/03/24 09:48:42;;;;;;;5.35;2.70;;;;;;;;;;5005960;28;20033;-63
2024/03/24 09:51:07;;;;;;;6.03;2.85;;;;;;;;;;5001025;28;20973;-65
2024/03/24 09:53:33;;;;;;;5.00;2.70;;;;;;;;;;5001817;28;20049;-70
2024/03/24 09:55:58;;;;;;;4.90;2.67;;;;;;;;;;5002456;28;20072;-64
2024/03/24 09:58:24;;;;;;;3.97;2.60;;;;;;;;;;5001746;28;20049;-67
2024/03/24 10:00:49;;;;;;;3.85;2.55;;;;;;;;;;4999158;28;20046;-65
2024/03/24 10:03:14;;;;;;;3.50;2.58;;;;;;;;;;4999429;28;20576;-64
2024/03/24 10:05:40;;;;;;;3.80;2.72;;;;;;;;;;5002305;28;20037;-65
2024/03/24 10:08:06;;;;;;;4.70;2.67;;;;;;;;;;4995399;28;20044;-64
2024/03/24 10:10:31;;;;;;;5.20;2.60;;;;;;;;;;5000115;28;20120;-67
2024/03/24 10:12:57;;;;;;;9.20;2.83;;;;;;;;;;5000121;28;20034;-63
2024/03/24 10:15:23;;;;;;;5.13;2.72;;;;;;;;;;5001937;28;20559;-62
2024/03/24 10:18:01;;;;;;;6.10;2.40;;;;;;;;;;5000888;28;20041;-69
2024/03/24 10:20:26;;;;;;;4.95;2.50;;;;;;;;;;5000297;28;20034;-64
2024/03/24 10:22:55;;;;;;;5.93;2.97;;;;;;;;;;4994523;28;20038;-66
2024/03/24 10:25:23;;;;;;;5.60;2.90;;;;;;;;;;4993587;28;20202;-65
2024/03/24 10:27:50;;;;;;;5.45;2.67;;;;;;;;;;4999573;28;20030;-64
2024/03/24 10:30:15;;;;;;;3.38;2.25;;;;;;;;;;4999071;28;20030;-66
2024/03/24 10:32:41;;;;;;;4.55;2.50;;;;;;;;;;4998001;28;20042;-66
2024/03/24 10:35:06;;;;;;;4.88;2.85;;;;;;;;;;4999730;28;20383;-66
2024/03/24 10:37:31;;;;;;;4.68;2.55;;;;;;;;;;5001279;28;20053;-63
2024/03/24 10:39:57;;;;;;;5.97;2.80;;;;;;;;;;4994148;28;20478;-63
2024/03/24 10:42:22;;;;;;;5.30;2.60;;;;;;;;;;5000355;28;20121;-64
2024/03/24 10:44:49;;;;;;;3.40;2.53;;;;;;;;;;5000318;28;20049;-63
2024/03/24 10:47:14;;;;;;;4.18;2.75;;;;;;;;;;4999011;28;20046;-62
2024/03/24 10:49:40;;;;;;;4.45;2.72;;;;;;;;;;5001537;28;20064;-65
2024/03/24 10:52:05;;;;;;;4.65;2.60;;;;;;;;;;4999704;28;20585;-63
2024/03/24 10:54:31;;;;;;;6.90;2.70;;;;;;;;;;5001912;28;20041;-65
2024/03/24 10:56:56;;;;;;;4.82;2.67;;;;;;;;;;5000481;28;20042;-67
2024/03/24 10:59:21;;;;;;;4.43;2.70;;;;;;;;;;4992008;28;20045;-66
2024/03/24 11:01:47;;;;;;;5.75;2.95;;;;;;;;;;4997953;28;20029;-63
2024/03/24 11:04:13;;;;;;;7.32;2.65;;;;;;;;;;4992931;28;20077;-63
2024/03/24 11:06:39;;;;;;;5.35;2.70;;;;;;;;;;4999236;28;21454;-62
2024/03/24 11:09:05;;;;;;;6.18;2.72;;;;;;;;;;4998772;28;20124;-62
2024/03/24 11:11:31;;;;;;;6.10;2.65;;;;;;;;;;5000749;28;20034;-63
2024/03/24 11:13:56;;;;;;;5.00;2.55;;;;;;;;;;5000220;28;20445;-63
2024/03/24 11:16:23;;;;;;;4.40;2.55;;;;;;;;;;4999678;28;20030;-64
2024/03/24 11:18:48;;;;;;;7.03;2.63;;;;;;;;;;5000699;28;20053;-64
2024/03/24 11:21:34;;;;;;;4.60;2.45;;;;;;;;;;5001399;28;20038;-64
2024/03/24 11:24:00;;;;;;;5.10;2.60;;;;;;;;;;4996113;28;20505;-64
2024/03/24 11:26:26;;;;;;;4.22;2.92;;;;;;;;;;5001247;28;20105;-66
2024/03/24 11:28:52;;;;;;;3.97;2.58;;;;;;;;;;5000116;28;20040;-65
2024/03/24 11:31:21;;;;;;;4.05;2.60;;;;;;;;;;4998674;28;20037;-66
2024/03/24 11:34:05;;;;;;;4.10;2.40;;;;;;;;;;5000211;28;20018;-66
2024/03/24 11:36:34;;;;;;;4.47;2.80;;;;;;;;;;5000923;28;20038;-64
2024/03/24 11:39:00;;;;;;;3.83;2.50;;;;;;;;;;5001667;28;20251;-64
2024/03/24 11:41:25;;;;;;;5.43;2.47;;;;;;;;;;5001641;28;20777;-65
2024/03/24 11:43:57;;;;;;;4.35;2.60;;;;;;;;;;5000892;28;20511;-64
2024/03/24 11:46:22;;;;;;;5.07;2.72;;;;;;;;;;5001085;28;20114;-64
2024/03/24 11:48:49;;;;;;;4.45;2.72;;;;;;;;;;5000963;28;20125;-64
2024/03/24 11:51:14;;;;;;;6.35;2.42;;;;;;;;;;5000869;28;20036;-64
2024/03/24 11:53:41;;;;;;;4.63;2.30;;;;;;;;;;5000563;28;20054;-64
2024/03/24 11:56:06;;;;;;;4.47;2.45;;;;;;;;;;5012091;28;20088;-64
2024/03/24 11:58:31;;;;;;;3.97;2.13;;;;;;;;;;5001222;28;20037;-65
2024/03/24 12:00:57;;;;;;;5.07;2.53;;;;;;;;;;4997819;28;20088;-66
2024/03/24 12:03:22;;;;;;;4.30;2.50;;;;;;;;;;4999657;28;20099;-65
2024/03/24 12:05:50;;;;;;;4.88;2.80;;;;;;;;;;5002387;28;20042;-64
2024/03/24 12:08:16;;;;;;;4.35;2.70;;;;;;;;;;5000462;28;20038;-67
2024/03/24 12:10:41;;;;;;;6.03;2.50;;;;;;;;;;4999870;28;20525;-64
2024/03/24 12:13:07;;;;;;;3.30;2.40;;;;;;;;;;5000771;28;20026;-65
2024/03/24 12:15:32;;;;;;;3.60;2.20;;;;;;;;;;5001897;28;20141;-66
2024/03/24 12:18:08;;;;;;;3.92;2.30;;;;;;;;;;5004336;28;20065;-67
2024/03/24 12:20:33;;;;;;;4.22;2.20;;;;;;;;;;5003541;28;20037;-66
2024/03/24 12:22:58;;;;;;;4.53;2.47;;;;;;;;;;5009139;28;20115;-65
2024/03/24 12:25:24;;;;;;;5.28;2.30;;;;;;;;;;5004549;28;20429;-65
2024/03/24 12:27:53;;;;;;;3.92;2.60;;;;;;;;;;5004725;28;20450;-66
2024/03/24 12:30:20;;;;;;;3.42;2.13;;;;;;;;;;5002157;28;20099;-67
2024/03/24 12:32:47;;;;;;;4.30;2.45;;;;;;;;;;5001871;28;20034;-64
2024/03/24 12:35:14;;;;;;;4.03;2.60;;;;;;;;;;5003431;28;20041;-65
2024/03/24 12:37:39;;;;;;;4.60;2.60;;;;;;;;;;5004245;28;20758;-64
2024/03/24 12:40:05;;;;;;;5.13;2.20;;;;;;;;;;5005392;28;20123;-63
2024/03/24 12:42:31;;;;;;;3.53;2.50;;;;;;;;;;4997172;28;20038;-64
2024/03/24 12:45:06;;;;;;;4.28;2.20;;;;;;;;;;5003097;28;20437;-66
2024/03/24 12:47:31;;;;;;;3.90;2.30;;;;;;;;;;5003595;28;20119;-65
2024/03/24 12:49:57;;;;;;;4.30;2.97;;;;;;;;;;5003165;28;20527;-61
2024/03/24 12:52:22;;;;;;;3.60;2.38;;;;;;;;;;5003073;28;20041;-62
2024/03/24 12:54:47;;;;;;;3.95;2.30;;;;;;;;;;5001700;28;20080;-63
2024/03/24 12:57:13;;;;;;;3.75;2.60;;;;;;;;;;5001789;28;20037;-64
2024/03/24 12:59:38;;;;;;;4.03;2.28;;;;;;;;;;4996934;28;20037;-65
2024/03/24 13:02:03;;;;;;;5.18;2.60;;;;;;;;;;4997916;28;20030;-64
2024/03/24 13:04:29;;;;;;;4.25;2.35;;;;;;;;;;5002508;28;20037;-63
2024/03/24 13:06:54;;;;;;;3.95;2.22;;;;;;;;;;5005020;28;20033;-63
2024/03/24 13:09:20;;;;;;;4.05;2.30;;;;;;;;;;5004316;28;20131;-65
2024/03/24 13:11:46;;;;;;;3.17;2.03;;;;;;;;;;5002194;28;20046;-66
2024/03/24 13:14:12;;;;;;;3.30;2.40;;;;;;;;;;5000833;28;20387;-64
2024/03/24 13:16:56;;;;;;;3.42;2.22;;;;;;;;;;5003721;28;20036;-64
2024/03/24 13:19:27;;;;;;;3.08;2.30;;;;;;;;;;5002619;28;20038;-63
2024/03/24 13:21:57;;;;;;;4.15;2.42;;;;;;;;;;5003913;28;20038;-66
2024/03/24 13:24:23;;;;;;;3.33;2.15;;;;;;;;;;4999302;28;20036;-63
2024/03/24 13:26:48;;;;;;;2.85;2.22;;;;;;;;;;5000929;28;20050;-62
2024/03/24 13:29:14;;;;;;;3.10;2.30;;;;;;;;;;5001639;28;20034;-64
2024/03/24 13:31:40;;;;;;;4.85;2.50;;;;;;;;;;5000262;28;20917;-62
2024/03/24 13:34:05;;;;;;;4.22;2.72;;;;;;;;;;5000639;28;20030;-62
2024/03/24 13:36:36;;;;;;;4.30;2.50;;;;;;;;;;5003021;28;20048;-63
2024/03/24 13:39:03;;;;;;;5.65;3.00;;;;;;;;;;5000935;28;20121;-62
2024/03/24 13:41:48;;;;;;;4.50;2.70;;;;;;;;;;5002241;28;20114;-62
2024/03/24 13:44:32;;;;;;;4.45;2.88;;;;;;;;;;4998666;28;20046;-62
2024/03/24 13:47:04;;;;;;;3.78;2.58;;;;;;;;;;4997937;28;20509;-67
2024/03/24 13:49:29;;;;;;;4.28;2.75;;;;;;;;;;4998616;28;21544;-61
2024/03/24 13:51:55;;;;;;;4.43;2.80;;;;;;;;;;5001984;28;20109;-62
2024/03/24 13:54:20;;;;;;;3.38;2.45;;;;;;;;;;5002443;28;20137;-62
2024/03/24 13:56:45;;;;;;;4.43;2.70;;;;;;;;;;5007197;28;20030;-62
2024/03/24 13:59:12;;;;;;;4.47;2.80;;;;;;;;;;5003610;28;20363;-61
2024/03/24 14:01:38;;;;;;;4.07;2.33;;;;;;;;;;5000551;28;20137;-62
2024/03/24 14:04:03;;;;;;;3.80;2.90;;;;;;;;;;4999684;28;20106;-62
2024/03/24 14:06:29;;;;;;;3.88;2.55;;;;;;;;;;5003032;28;20092;-61
2024/03/24 14:08:54;;;;;;;4.32;2.80;;;;;;;;;;5004315;28;20034;-62
2024/03/24 14:11:19;;;;;;;4.25;2.55;;;;;;;;;;5002129;28;20034;-62
2024/03/24 14:14:01;;;;;;;3.17;2.38;;;;;;;;;;5001207;28;20478;-64
2024/03/24 14:16:28;;;;;;;2.83;2.20;;;;;;;;;;4999497;28;20506;-61
2024/03/24 14:19:12;;;;;;;4.13;2.58;;;;;;;;;;5000256;28;20065;-60
2024/03/24 14:22:13;;;;;;;7.25;2.80;;;;;;;;;;5001068;28;20038;-62
2024/03/24 14:24:40;;;;;;;6.45;2.67;;;;;;;;;;4933361;28;20165;-61
2024/03/24 14:27:05;;;;;;;5.47;2.47;;;;;;;;;;4977010;28;20529;-59
2024/03/24 14:29:30;;;;;;;5.18;2.30;;;;;;;;;;5003162;28;20203;-61
2024/03/24 14:31:56;;;;;;;4.68;2.40;;;;;;;;;;4999530;28;20087;-61
2024/03/24 14:34:21;;;;;;;6.28;2.20;;;;;;;;;;4999009;28;20030;-61
2024/03/24 14:36:53;;;;;;;3.92;2.53;;;;;;;;;;5000923;28;20045;-61
2024/03/24 14:39:30;;;;;;;6.40;2.20;;;;;;;;;;5001808;28;20526;-61